createdAt,value
2019-05-19T00:00:54.885Z,60.03
2019-05-19T00:03:25.114Z,57.60
2019-05-19T00:05:58.248Z,53.50
2019-05-19T00:08:32.710Z,53.43
2019-05-19T00:11:02.096Z,54.00
2019-05-19T00:13:32.596Z,57.17
2019-05-19T00:16:02.990Z,54.07
2019-05-19T00:18:33.252Z,52.03
2019-05-19T00:21:03.473Z,53.70
2019-05-19T00:23:33.711Z,50.33
2019-05-19T00:26:04.083Z,50.33
2019-05-19T00:28:36.738Z,49.43
2019-05-19T00:31:06.893Z,49.57
2019-05-19T00:33:37.182Z,48.80
2019-05-19T00:36:07.552Z,49.43
2019-05-19T00:38:37.831Z,47.67
2019-05-19T00:41:08.086Z,49.33
2019-05-19T00:43:38.352Z,51.97
2019-05-19T00:46:08.566Z,52.97
2019-05-19T00:48:38.728Z,51.80
2019-05-19T00:51:11.738Z,49.77
2019-05-19T00:53:41.935Z,49.37
2019-05-19T00:56:13.798Z,48.90
2019-05-19T00:58:44.814Z,48.43
2019-05-19T01:01:17.666Z,51.00
2019-05-19T01:03:48.017Z,51.13
2019-05-19T01:06:18.157Z,49.60
2019-05-19T01:08:50.363Z,51.80
2019-05-19T01:11:20.595Z,51.60
2019-05-19T01:13:50.965Z,49.97
2019-05-19T01:16:22.205Z,50.47
2019-05-19T01:18:54.797Z,51.27
2019-05-19T01:21:27.052Z,50.73
2019-05-19T01:23:57.272Z,49.57
2019-05-19T01:26:27.492Z,48.33
2019-05-19T01:28:57.636Z,49.93
2019-05-19T01:31:28.167Z,53.30
2019-05-19T01:33:58.349Z,55.27
2019-05-19T01:36:29.084Z,53.77
2019-05-19T01:38:59.285Z,52.73
2019-05-19T01:41:29.517Z,50.07
2019-05-19T01:44:00.216Z,53.03
2019-05-19T01:46:30.428Z,51.37
2019-05-19T01:49:01.642Z,49.20
2019-05-19T01:51:31.809Z,47.53
2019-05-19T01:54:02.094Z,47.60
2019-05-19T01:56:33.353Z,46.30
2019-05-19T01:59:03.466Z,46.37
2019-05-19T02:01:33.610Z,47.97
2019-05-19T02:04:03.775Z,45.93
2019-05-19T02:06:35.553Z,45.87
2019-05-19T02:09:07.590Z,47.80
2019-05-19T02:11:37.891Z,47.20
2019-05-19T02:14:08.021Z,45.23
2019-05-19T02:16:39.220Z,46.20
2019-05-19T02:19:09.329Z,47.63
2019-05-19T02:21:39.503Z,48.53
2019-05-19T02:24:09.651Z,53.13
2019-05-19T02:26:39.907Z,50.90
2019-05-19T02:29:10.137Z,52.70
2019-05-19T02:31:40.409Z,49.93
2019-05-19T02:34:10.962Z,52.13
2019-05-19T02:36:42.241Z,51.17
2019-05-19T02:39:14.001Z,52.03
2019-05-19T02:41:47.262Z,51.13
2019-05-19T02:44:20.086Z,50.37
2019-05-19T02:46:51.969Z,49.00
2019-05-19T02:49:23.384Z,47.43
2019-05-19T02:51:54.129Z,44.50
2019-05-19T02:54:25.588Z,43.00
2019-05-19T02:56:56.243Z,41.80
2019-05-19T02:59:29.158Z,42.57
2019-05-19T03:02:08.839Z,42.40
2019-05-19T03:04:38.990Z,43.40
2019-05-19T03:07:09.219Z,45.23
2019-05-19T03:09:39.359Z,40.60
2019-05-19T03:12:09.603Z,43.23
2019-05-19T03:14:39.774Z,44.87
2019-05-19T03:17:09.932Z,39.20
2019-05-19T03:19:40.133Z,41.47
2019-05-19T03:22:10.316Z,40.30
2019-05-19T03:24:40.457Z,39.70
2019-05-19T03:27:12.239Z,41.03
2019-05-19T03:29:48.181Z,42.13
2019-05-19T03:32:27.805Z,40.53
2019-05-19T03:34:57.917Z,41.73
2019-05-19T03:37:28.167Z,42.23
2019-05-19T03:39:58.324Z,45.07
2019-05-19T03:42:28.546Z,45.70
2019-05-19T03:44:58.684Z,48.27
2019-05-19T03:47:29.168Z,49.53
2019-05-19T03:49:59.294Z,50.47
2019-05-19T03:52:29.414Z,48.60
2019-05-19T03:54:59.594Z,47.50
2019-05-19T03:57:29.774Z,48.00
2019-05-19T03:59:59.900Z,47.93
2019-05-19T04:02:30.421Z,47.63
2019-05-19T04:05:00.546Z,48.17
2019-05-19T04:07:33.198Z,47.73
2019-05-19T04:10:03.349Z,49.63
2019-05-19T04:12:33.505Z,47.17
2019-05-19T04:15:04.679Z,45.80
2019-05-19T04:17:34.863Z,47.57
2019-05-19T04:20:16.106Z,46.50
2019-05-19T04:22:46.389Z,46.80
2019-05-19T04:25:16.547Z,48.63
2019-05-19T04:27:46.651Z,48.97
2019-05-19T04:30:17.024Z,47.90
2019-05-19T04:32:47.460Z,48.53
2019-05-19T04:35:17.673Z,49.17
2019-05-19T04:37:47.807Z,50.50
2019-05-19T04:40:17.987Z,52.87
2019-05-19T04:42:48.172Z,51.93
2019-05-19T04:45:18.360Z,51.67
2019-05-19T04:47:48.337Z,51.70
2019-05-19T04:50:20.214Z,48.13
2019-05-19T04:52:50.361Z,49.00
2019-05-19T04:55:20.553Z,47.07
2019-05-19T04:57:50.706Z,47.23
2019-05-19T05:00:20.957Z,46.30
2019-05-19T05:02:51.232Z,48.40
2019-05-19T05:05:21.417Z,47.60
2019-05-19T05:07:51.603Z,49.63
2019-05-19T05:10:21.848Z,49.23
2019-05-19T05:12:53.266Z,50.57
2019-05-19T05:15:26.192Z,48.70
2019-05-19T05:17:56.310Z,49.73
2019-05-19T05:20:26.424Z,49.63
2019-05-19T05:22:56.586Z,48.47
2019-05-19T05:25:26.677Z,47.97
2019-05-19T05:27:56.882Z,48.00
2019-05-19T05:30:27.001Z,47.40
2019-05-19T05:32:57.224Z,46.13
2019-05-19T05:35:28.390Z,43.77
2019-05-19T05:37:58.583Z,43.60
2019-05-19T05:40:28.683Z,41.60
2019-05-19T05:43:00.359Z,41.87
2019-05-19T05:45:30.471Z,39.47
2019-05-19T05:48:02.310Z,40.57
2019-05-19T05:50:35.321Z,43.47
2019-05-19T05:53:05.548Z,40.33
2019-05-19T05:55:35.767Z,41.93
2019-05-19T05:58:06.024Z,40.27
2019-05-19T06:00:36.225Z,38.90
2019-05-19T06:03:06.474Z,38.90
2019-05-19T06:05:36.651Z,39.23
2019-05-19T06:08:06.880Z,37.77
2019-05-19T06:10:37.095Z,37.70
2019-05-19T06:13:07.333Z,39.03
2019-05-19T06:15:37.497Z,38.67
2019-05-19T06:18:07.757Z,39.40
2019-05-19T06:20:37.923Z,36.87
2019-05-19T06:23:08.076Z,38.57
2019-05-19T06:25:39.937Z,39.20
2019-05-19T06:28:10.110Z,38.80
2019-05-19T06:30:40.242Z,38.20
2019-05-19T06:33:10.430Z,38.40
2019-05-19T06:35:40.641Z,39.77
2019-05-19T06:38:10.877Z,39.07
2019-05-19T06:40:41.080Z,37.50
2019-05-19T06:43:11.249Z,38.23
2019-05-19T06:45:41.670Z,38.50
2019-05-19T06:48:11.931Z,37.53
2019-05-19T06:50:42.098Z,40.57
2019-05-19T06:53:14.698Z,39.10
2019-05-19T06:55:45.173Z,38.57
2019-05-19T06:58:15.353Z,40.53
2019-05-19T07:00:45.604Z,38.90
2019-05-19T07:03:17.006Z,40.87
2019-05-19T07:05:47.177Z,39.77
2019-05-19T07:08:17.355Z,40.03
2019-05-19T07:10:47.482Z,40.77
2019-05-19T07:13:17.666Z,38.93
2019-05-19T07:15:48.017Z,39.87
2019-05-19T07:18:18.269Z,37.47
2019-05-19T07:20:48.508Z,37.90
2019-05-19T07:23:27.959Z,38.57
2019-05-19T07:25:50.665Z,39.17
2019-05-19T07:28:21.012Z,38.63
2019-05-19T07:30:51.152Z,39.30
2019-05-19T07:33:21.276Z,37.63
2019-05-19T07:35:51.452Z,36.73
2019-05-19T07:38:21.710Z,35.47
2019-05-19T07:40:51.829Z,36.60
2019-05-19T07:43:23.044Z,37.13
2019-05-19T07:45:53.203Z,38.20
2019-05-19T07:48:23.448Z,35.73
2019-05-19T07:50:53.582Z,39.83
2019-05-19T07:53:23.760Z,39.57
2019-05-19T07:55:57.400Z,35.67
2019-05-19T07:58:27.643Z,36.67
2019-05-19T08:00:57.801Z,37.73
2019-05-19T08:03:27.959Z,36.83
2019-05-19T08:05:58.645Z,36.97
2019-05-19T08:08:29.388Z,35.87
2019-05-19T08:10:59.481Z,36.17
2019-05-19T08:13:29.965Z,36.63
2019-05-19T08:15:59.964Z,34.77
2019-05-19T08:18:30.176Z,32.80
2019-05-19T08:21:00.328Z,33.27
2019-05-19T08:23:30.519Z,33.60
2019-05-19T08:26:00.682Z,33.50
2019-05-19T08:28:30.825Z,33.00
2019-05-19T08:31:00.947Z,35.57
2019-05-19T08:33:31.125Z,34.23
2019-05-19T08:36:01.350Z,33.93
2019-05-19T08:38:31.521Z,34.73
2019-05-19T08:41:01.758Z,34.87
2019-05-19T08:43:31.949Z,35.23
2019-05-19T08:46:02.125Z,35.33
2019-05-19T08:48:32.309Z,35.00
2019-05-19T08:51:02.519Z,36.17
2019-05-19T08:53:32.726Z,35.70
2019-05-19T08:56:02.991Z,35.50
2019-05-19T08:58:33.259Z,34.37
2019-05-19T09:01:03.389Z,32.97
2019-05-19T09:03:34.635Z,33.43
2019-05-19T09:06:04.881Z,32.27
2019-05-19T09:08:35.061Z,31.87
2019-05-19T09:11:05.338Z,31.50
2019-05-19T09:13:35.522Z,32.07
2019-05-19T09:16:06.849Z,29.43
2019-05-19T09:18:38.670Z,28.83
2019-05-19T09:21:08.863Z,29.33
2019-05-19T09:23:39.103Z,29.27
2019-05-19T09:26:09.340Z,31.17
2019-05-19T09:28:39.602Z,28.57
2019-05-19T09:31:09.828Z,28.43
2019-05-19T09:33:41.680Z,29.37
2019-05-19T09:36:11.886Z,28.20
2019-05-19T09:38:42.124Z,29.63
2019-05-19T09:41:13.338Z,30.80
2019-05-19T09:43:43.495Z,30.23
2019-05-19T09:46:14.101Z,30.23
2019-05-19T09:48:44.417Z,28.57
2019-05-19T09:51:14.708Z,30.90
2019-05-19T09:53:44.982Z,29.03
2019-05-19T09:56:15.230Z,28.97
2019-05-19T09:58:45.414Z,29.87
2019-05-19T10:01:15.682Z,30.10
2019-05-19T10:03:45.950Z,31.07
2019-05-19T10:06:17.896Z,30.93
2019-05-19T10:08:53.340Z,30.00
2019-05-19T10:11:36.453Z,29.73
2019-05-19T10:14:08.269Z,29.63
2019-05-19T10:16:38.538Z,28.67
2019-05-19T10:19:08.828Z,29.00
2019-05-19T10:21:39.007Z,27.77
2019-05-19T10:24:09.607Z,28.03
2019-05-19T10:26:39.816Z,27.67
2019-05-19T10:29:11.767Z,27.57
2019-05-19T10:31:41.823Z,27.90
2019-05-19T10:34:12.219Z,28.83
2019-05-19T10:36:42.437Z,28.13
2019-05-19T10:39:12.771Z,28.93
2019-05-19T10:41:45.514Z,28.13
2019-05-19T10:44:17.401Z,27.62
2019-05-19T10:46:47.592Z,34.00
2019-05-19T10:49:17.871Z,27.97
2019-05-19T10:51:48.114Z,26.60
2019-05-19T10:54:19.213Z,26.60
2019-05-19T10:56:49.464Z,28.23
2019-05-19T10:59:20.907Z,28.50
2019-05-19T11:01:51.164Z,27.50
2019-05-19T11:04:21.403Z,26.87
2019-05-19T11:06:51.810Z,26.27
2019-05-19T11:09:22.023Z,27.70
2019-05-19T11:11:52.180Z,27.57
2019-05-19T11:14:22.563Z,28.23
2019-05-19T11:16:52.911Z,31.87
2019-05-19T11:19:23.151Z,28.90
2019-05-19T11:21:53.419Z,29.37
2019-05-19T11:24:23.641Z,28.10
2019-05-19T11:26:54.453Z,28.90
2019-05-19T11:29:24.706Z,25.33
2019-05-19T11:31:56.561Z,27.07
2019-05-19T11:34:27.966Z,25.60
2019-05-19T11:37:00.507Z,27.17
2019-05-19T11:39:30.780Z,26.30
2019-05-19T11:42:03.095Z,26.00
2019-05-19T11:44:34.868Z,26.87
2019-05-19T11:47:05.256Z,26.97
2019-05-19T11:49:37.132Z,28.10
2019-05-19T11:52:09.175Z,30.50
2019-05-19T11:54:39.363Z,29.87
2019-05-19T11:57:09.929Z,31.10
2019-05-19T11:59:40.169Z,30.30
2019-05-19T12:02:13.473Z,32.97
2019-05-19T12:04:45.743Z,30.97
2019-05-19T12:07:16.311Z,32.50
2019-05-19T12:09:47.439Z,32.67
2019-05-19T12:12:19.499Z,29.97
2019-05-19T12:14:52.885Z,30.50
2019-05-19T12:17:23.246Z,29.83
2019-05-19T12:19:53.495Z,32.00
2019-05-19T12:22:23.730Z,31.30
2019-05-19T12:24:54.487Z,32.57
2019-05-19T12:27:24.863Z,31.63
2019-05-19T12:29:55.060Z,30.83
2019-05-19T12:32:27.035Z,33.10
2019-05-19T12:34:57.277Z,31.70
2019-05-19T12:37:27.445Z,31.23
2019-05-19T12:39:57.685Z,31.63
2019-05-19T12:42:27.993Z,30.97
2019-05-19T12:44:58.170Z,32.93
2019-05-19T12:47:28.355Z,32.37
2019-05-19T12:49:58.563Z,30.20
2019-05-19T12:52:28.766Z,32.90
2019-05-19T12:54:59.020Z,33.50
2019-05-19T12:57:29.193Z,32.17
2019-05-19T13:00:00.434Z,33.13
2019-05-19T13:02:38.056Z,34.00
2019-05-19T13:05:08.780Z,35.50
2019-05-19T13:07:38.965Z,33.07
2019-05-19T13:10:09.321Z,32.57
2019-05-19T13:12:42.721Z,30.17
2019-05-19T13:15:15.559Z,31.87
2019-05-19T13:17:47.613Z,30.00
2019-05-19T13:20:19.276Z,30.63
2019-05-19T13:22:49.750Z,31.90
2019-05-19T13:25:21.619Z,31.57
2019-05-19T13:27:51.806Z,31.17
2019-05-19T13:30:23.447Z,30.97
2019-05-19T13:32:53.708Z,31.53
2019-05-19T13:35:24.020Z,31.83
2019-05-19T13:37:54.234Z,32.00
2019-05-19T13:40:24.429Z,33.17
2019-05-19T13:42:54.690Z,32.83
2019-05-19T13:45:24.918Z,31.17
2019-05-19T13:47:55.147Z,31.00
2019-05-19T13:50:25.362Z,31.73
2019-05-19T13:52:55.542Z,31.47
2019-05-19T13:55:25.788Z,30.63
2019-05-19T13:57:55.920Z,34.00
2019-05-19T14:00:26.131Z,30.20
2019-05-19T14:02:56.235Z,30.90
2019-05-19T14:05:26.532Z,31.93
2019-05-19T14:07:59.678Z,31.43
2019-05-19T14:10:32.899Z,30.53
2019-05-19T14:13:08.726Z,31.63
2019-05-19T14:15:40.332Z,31.87
2019-05-19T14:18:13.372Z,29.70
2019-05-19T14:20:46.603Z,29.13
2019-05-19T14:23:17.443Z,29.80
2019-05-19T14:25:50.869Z,29.73
2019-05-19T14:28:21.101Z,30.30
2019-05-19T14:30:52.106Z,30.07
2019-05-19T14:33:22.451Z,31.03
2019-05-19T14:35:53.835Z,30.00
2019-05-19T14:38:25.169Z,31.53
2019-05-19T14:40:57.444Z,30.83
2019-05-19T14:43:28.115Z,31.23
2019-05-19T14:45:59.268Z,32.87
2019-05-19T14:48:29.394Z,33.57
2019-05-19T14:51:02.288Z,31.63
2019-05-19T14:53:34.374Z,31.60
2019-05-19T14:56:04.532Z,32.77
2019-05-19T14:58:34.651Z,29.77
2019-05-19T15:01:04.869Z,31.80
2019-05-19T15:03:35.072Z,32.33
2019-05-19T15:06:05.224Z,30.43
2019-05-19T15:08:35.501Z,30.27
2019-05-19T15:11:05.765Z,29.53
2019-05-19T15:13:36.148Z,31.00
2019-05-19T15:16:06.380Z,30.27
2019-05-19T15:18:36.587Z,28.23
2019-05-19T15:21:06.785Z,31.47
2019-05-19T15:23:37.191Z,32.57
2019-05-19T15:26:08.919Z,29.93
2019-05-19T15:28:39.121Z,34.13
2019-05-19T15:31:09.244Z,30.17
2019-05-19T15:33:39.448Z,28.73
2019-05-19T15:36:10.751Z,30.23
2019-05-19T15:38:45.144Z,33.00
2019-05-19T15:41:15.420Z,31.50
2019-05-19T15:43:45.674Z,31.30
2019-05-19T15:46:18.128Z,33.00
2019-05-19T15:48:47.927Z,33.23
2019-05-19T15:51:28.016Z,32.90
2019-05-19T15:53:49.981Z,31.20
2019-05-19T15:56:20.149Z,32.50
2019-05-19T15:58:50.386Z,28.33
2019-05-19T16:01:20.958Z,30.47
2019-05-19T16:03:51.074Z,29.33
2019-05-19T16:06:21.201Z,28.27
2019-05-19T16:08:51.366Z,31.40
2019-05-19T16:11:21.480Z,26.70
2019-05-19T16:13:51.768Z,26.43
2019-05-19T16:16:21.959Z,25.70
2019-05-19T16:18:53.353Z,23.37
2019-05-19T16:21:23.640Z,26.07
2019-05-19T16:23:54.024Z,27.17
2019-05-19T16:26:24.730Z,26.97
2019-05-19T16:28:54.902Z,26.67
2019-05-19T16:31:25.234Z,25.23
2019-05-19T16:33:55.827Z,26.57
2019-05-19T16:36:26.125Z,27.27
2019-05-19T16:38:56.528Z,26.90
2019-05-19T16:41:27.800Z,24.87
2019-05-19T16:43:58.023Z,25.07
2019-05-19T16:46:28.176Z,25.03
2019-05-19T16:49:00.893Z,22.77
2019-05-19T16:51:31.267Z,20.20
2019-05-19T16:54:05.726Z,19.00
2019-05-19T16:56:38.449Z,20.03
2019-05-19T16:59:09.980Z,18.70
2019-05-19T17:01:40.245Z,21.37
2019-05-19T17:04:11.941Z,20.10
2019-05-19T17:06:42.255Z,21.33
2019-05-19T17:09:12.459Z,19.37
2019-05-19T17:11:42.674Z,19.10
2019-05-19T17:14:12.904Z,19.53
2019-05-19T17:16:43.018Z,17.90
2019-05-19T17:19:14.817Z,19.57
2019-05-19T17:21:45.039Z,20.73
2019-05-19T17:24:15.409Z,18.33
2019-05-19T17:26:45.515Z,20.30
2019-05-19T17:29:15.681Z,19.33
2019-05-19T17:31:45.891Z,19.10
2019-05-19T17:34:16.146Z,18.37
2019-05-19T17:36:46.286Z,17.97
2019-05-19T17:39:21.234Z,18.90
2019-05-19T17:41:57.495Z,19.93
2019-05-19T17:44:27.780Z,18.87
2019-05-19T17:46:58.100Z,17.47
2019-05-19T17:49:28.331Z,19.93
2019-05-19T17:51:59.097Z,19.53
2019-05-19T17:54:29.254Z,19.83
2019-05-19T17:57:00.327Z,18.50
2019-05-19T17:59:30.744Z,17.93
2019-05-19T18:02:00.889Z,16.90
2019-05-19T18:04:31.027Z,17.10
2019-05-19T18:07:01.247Z,16.70
2019-05-19T18:09:35.362Z,19.60
2019-05-19T18:12:05.568Z,18.53
2019-05-19T18:14:35.800Z,17.20
2019-05-19T18:17:06.006Z,16.77
2019-05-19T18:19:36.278Z,16.60
2019-05-19T18:22:06.589Z,18.47
2019-05-19T18:24:37.222Z,17.67
2019-05-19T18:27:07.418Z,17.00
2019-05-19T18:29:37.677Z,18.23
2019-05-19T18:32:07.835Z,17.13
2019-05-19T18:34:38.191Z,16.63
2019-05-19T18:37:08.379Z,17.53
2019-05-19T18:39:38.655Z,15.30
2019-05-19T18:42:08.860Z,16.03
2019-05-19T18:44:40.232Z,15.57
2019-05-19T18:47:11.915Z,16.57
2019-05-19T18:49:42.173Z,15.67
2019-05-19T18:52:12.311Z,15.63
2019-05-19T18:54:42.505Z,15.90
2019-05-19T18:57:14.313Z,16.63
2019-05-19T18:59:47.561Z,16.13
2019-05-19T19:02:16.705Z,16.73
2019-05-19T19:04:46.998Z,16.77
2019-05-19T19:07:17.233Z,16.53
2019-05-19T19:09:49.011Z,16.70
2019-05-19T19:12:19.277Z,15.80
2019-05-19T19:14:49.505Z,16.07
2019-05-19T19:17:19.699Z,15.87
2019-05-19T19:19:49.902Z,16.20
2019-05-19T19:22:21.647Z,17.87
2019-05-19T19:24:51.890Z,16.33
2019-05-19T19:27:22.150Z,16.37
2019-05-19T19:30:03.020Z,16.83
2019-05-19T19:32:26.169Z,16.43
2019-05-19T19:34:56.391Z,16.57
2019-05-19T19:37:27.755Z,15.83
2019-05-19T19:40:06.294Z,16.23
2019-05-19T19:42:39.217Z,16.77
2019-05-19T19:45:11.213Z,17.00
2019-05-19T19:47:41.538Z,15.97
2019-05-19T19:50:15.498Z,15.83
2019-05-19T19:52:46.041Z,16.47
2019-05-19T19:55:18.707Z,17.27
2019-05-19T19:57:53.319Z,17.40
2019-05-19T20:00:44.843Z,16.70
2019-05-19T20:03:23.438Z,16.23
2019-05-19T20:05:56.532Z,16.57
2019-05-19T20:08:27.013Z,17.00
2019-05-19T20:10:57.296Z,16.40
2019-05-19T20:13:27.676Z,17.67
2019-05-19T20:15:59.938Z,17.57
2019-05-19T20:18:30.237Z,16.93
2019-05-19T20:21:01.501Z,18.53
2019-05-19T20:23:31.803Z,16.90
2019-05-19T20:26:01.981Z,16.83
2019-05-19T20:28:33.289Z,16.30
2019-05-19T20:31:03.459Z,17.00
2019-05-19T20:33:33.669Z,16.37
2019-05-19T20:36:03.910Z,18.13
2019-05-19T20:38:34.133Z,17.57
2019-05-19T20:41:04.345Z,17.77
2019-05-19T20:43:34.701Z,17.77
2019-05-19T20:46:05.010Z,16.90
2019-05-19T20:48:35.115Z,16.37
2019-05-19T20:51:06.661Z,18.77
2019-05-19T20:53:36.854Z,20.73
2019-05-19T20:56:08.717Z,19.33
2019-05-19T20:58:38.947Z,21.77
2019-05-19T21:01:09.072Z,21.27
2019-05-19T21:03:43.443Z,20.23
2019-05-19T21:06:13.669Z,21.73
2019-05-19T21:08:43.812Z,21.40
2019-05-19T21:11:15.118Z,21.50
2019-05-19T21:13:45.301Z,21.70
2019-05-19T21:16:16.602Z,20.37
2019-05-19T21:19:04.910Z,23.50
2019-05-19T21:21:35.173Z,22.70
2019-05-19T21:24:05.397Z,24.77
2019-05-19T21:26:35.570Z,24.03
2019-05-19T21:29:05.831Z,26.43
2019-05-19T21:31:40.027Z,24.90
2019-05-19T21:34:10.333Z,25.27
2019-05-19T21:36:40.577Z,24.00
2019-05-19T21:39:12.577Z,23.37
2019-05-19T21:41:42.758Z,23.07
2019-05-19T21:44:12.918Z,25.10
2019-05-19T21:46:43.104Z,25.27
2019-05-19T21:49:13.272Z,24.30
2019-05-19T21:51:43.481Z,26.27
2019-05-19T21:54:13.681Z,27.50
2019-05-19T21:56:43.893Z,27.03
2019-05-19T21:59:14.092Z,25.83
2019-05-19T22:01:45.874Z,25.07
2019-05-19T22:04:16.028Z,24.50
2019-05-19T22:06:51.110Z,23.37
2019-05-19T22:09:21.422Z,24.30
2019-05-19T22:11:51.644Z,21.93
2019-05-19T22:14:21.881Z,23.23
2019-05-19T22:16:52.080Z,25.27
2019-05-19T22:19:22.382Z,24.70
2019-05-19T22:21:52.561Z,23.13
2019-05-19T22:24:22.730Z,24.53
2019-05-19T22:26:53.069Z,26.83
2019-05-19T22:29:23.220Z,27.60
2019-05-19T22:31:53.386Z,28.20
2019-05-19T22:34:23.689Z,29.40
2019-05-19T22:36:54.792Z,24.80
2019-05-19T22:39:24.991Z,24.53
2019-05-19T22:41:55.537Z,27.53
2019-05-19T22:44:25.744Z,28.73
2019-05-19T22:46:55.971Z,27.47
2019-05-19T22:49:26.135Z,26.67
2019-05-19T22:51:56.407Z,27.20
2019-05-19T22:54:28.419Z,27.00
2019-05-19T22:56:58.623Z,26.90
2019-05-19T22:59:28.788Z,28.10
2019-05-19T23:01:59.944Z,28.37
2019-05-19T23:04:30.111Z,28.73
2019-05-19T23:07:00.258Z,29.00
2019-05-19T23:09:30.403Z,28.77
2019-05-19T23:12:00.558Z,30.63
2019-05-19T23:14:30.733Z,29.10
2019-05-19T23:17:00.941Z,31.17
2019-05-19T23:19:31.098Z,28.80
2019-05-19T23:22:01.283Z,28.50
2019-05-19T23:24:31.429Z,29.00
2019-05-19T23:27:01.704Z,29.50
2019-05-19T23:29:31.872Z,28.73
2019-05-19T23:32:07.232Z,28.63
2019-05-19T23:34:34.045Z,30.70
2019-05-19T23:37:04.225Z,31.07
2019-05-19T23:39:35.411Z,30.90
2019-05-19T23:42:05.631Z,30.73
2019-05-19T23:44:35.775Z,30.97
2019-05-19T23:47:05.936Z,29.70
2019-05-19T23:49:36.096Z,30.37
2019-05-19T23:52:06.261Z,31.97
2019-05-19T23:54:36.456Z,30.70
2019-05-19T23:57:06.691Z,31.43
2019-05-19T23:59:36.895Z,30.77
